METAR Formatted Surface Weather Observation
Issued by NWS

Home | Current Version | Previous Version | Text Only | Print | Product List | Glossary On
Versions: 1 2 3 4
000
SAUS46 KSEW 290958
MTRSMP
METAR KSMP 290956Z AUTO VRB03KT 1/4SM FG VV001 12/11 A3006 RMK AO2
SLP160 T01170106 $



USA.gov is the U.S. government's official web portal to all federal, state and local government web resources and services.